Aviation Digital Data Service (ADDS)

Output produced by TAFs form (1330 UTC 06 July 2015)
found at http://aviationweather.gov/adds/tafs/
 
KABQ 061133Z 0612/0712 VRB06KT P6SM BKN120 
     FM061900 33007KT P6SM FEW080 FEW150 
     FM070000 06010KT P6SM VCTS SCT080CB BKN150 
     FM070200 09020G32KT P6SM VCSH BKN080